Decoded Metar for VELR (LILABARI in INDIA) (IATA:IXI) | Meteo·Mobile Aviation Weather
aviador You're here:

VELR Decoded Metar

LILABARI in INDIA
Report Time2018-08-19 05:00:00
UTC Time2018-08-19 05:27:08
Flight Rules mvfr MVFR
Wind090° at 08 kt
W.Decomp.*RWY 04: 5.1 kt HW 6.1 kt RCW
W.Rank090° ranks 4
Current wind is above 090° avg. (4.6)
Visibility7000 m
Phenomena:N/A
Clouds:Few 020 Hf
Scattered 100 Hf
Expected CloudBase > 3,200 ft AGL from Temp-Dew spread
CeilingNone
Temp36°C (ISA +22)
Dew Point28°C (63% RH)
Heat Index49.8°C
QNH1000 hPa
Density Alt3,714 ft
Elevation331 ft
Report Wrong Elevation
Raw Report
METAR VELR 190500Z 09008KT 7000 FEW020 SCT100 36/28 Q1000=####018000088####
SAIN90 VIJP 190500

Extra information for VELR:More info

Airport Information Weather charts Add Link Nearby Venues Social comments